sensor_id;sensor_type;location;lat;lon;timestamp;P1;durP1;ratioP1;P2;durP2;ratioP2
59169;SDS011;52474;52.236;5.114;2024-02-16T00:01:38;7.10;;;4.47;;
59169;SDS011;52474;52.236;5.114;2024-02-16T00:04:04;8.45;;;4.60;;
59169;SDS011;52474;52.236;5.114;2024-02-16T00:06:30;8.80;;;4.57;;
59169;SDS011;52474;52.236;5.114;2024-02-16T00:08:56;8.75;;;5.00;;
59169;SDS011;52474;52.236;5.114;2024-02-16T00:11:21;9.50;;;5.00;;
59169;SDS011;52474;52.236;5.114;2024-02-16T00:13:48;7.47;;;4.80;;
59169;SDS011;52474;52.236;5.114;2024-02-16T00:16:14;7.75;;;4.70;;
59169;SDS011;52474;52.236;5.114;2024-02-16T00:18:40;7.90;;;4.65;;
59169;SDS011;52474;52.236;5.114;2024-02-16T00:21:05;8.10;;;4.63;;
59169;SDS011;52474;52.236;5.114;2024-02-16T00:23:31;10.52;;;4.60;;
59169;SDS011;52474;52.236;5.114;2024-02-16T00:25:59;9.05;;;4.70;;
59169;SDS011;52474;52.236;5.114;2024-02-16T00:28:25;7.43;;;4.90;;
59169;SDS011;52474;52.236;5.114;2024-02-16T00:31:11;8.20;;;4.55;;
59169;SDS011;52474;52.236;5.114;2024-02-16T00:33:36;14.05;;;5.20;;
59169;SDS011;52474;52.236;5.114;2024-02-16T00:36:02;8.02;;;4.80;;
59169;SDS011;52474;52.236;5.114;2024-02-16T00:38:28;6.35;;;4.70;;
59169;SDS011;52474;52.236;5.114;2024-02-16T00:40:53;8.23;;;4.90;;
59169;SDS011;52474;52.236;5.114;2024-02-16T00:43:19;8.32;;;4.28;;
59169;SDS011;52474;52.236;5.114;2024-02-16T00:45:45;7.18;;;4.57;;
59169;SDS011;52474;52.236;5.114;2024-02-16T00:48:11;7.13;;;4.85;;
59169;SDS011;52474;52.236;5.114;2024-02-16T00:50:36;5.45;;;4.18;;
59169;SDS011;52474;52.236;5.114;2024-02-16T00:53:02;8.18;;;4.97;;
59169;SDS011;52474;52.236;5.114;2024-02-16T00:55:29;9.27;;;5.22;;
59169;SDS011;52474;52.236;5.114;2024-02-16T00:57:55;7.85;;;4.78;;
59169;SDS011;52474;52.236;5.114;2024-02-16T01:00:21;8.88;;;4.30;;
59169;SDS011;52474;52.236;5.114;2024-02-16T01:02:49;6.05;;;4.53;;
59169;SDS011;52474;52.236;5.114;2024-02-16T01:05:15;6.63;;;4.60;;
59169;SDS011;52474;52.236;5.114;2024-02-16T01:07:43;8.40;;;4.43;;
59169;SDS011;52474;52.236;5.114;2024-02-16T01:10:09;8.93;;;4.78;;
59169;SDS011;52474;52.236;5.114;2024-02-16T01:12:35;9.23;;;5.18;;
59169;SDS011;52474;52.236;5.114;2024-02-16T01:15:01;11.38;;;5.20;;
59169;SDS011;52474;52.236;5.114;2024-02-16T01:17:26;7.82;;;4.65;;
59169;SDS011;52474;52.236;5.114;2024-02-16T01:19:52;8.00;;;4.90;;
59169;SDS011;52474;52.236;5.114;2024-02-16T01:22:18;9.18;;;4.97;;
59169;SDS011;52474;52.236;5.114;2024-02-16T01:24:44;6.45;;;4.65;;
59169;SDS011;52474;52.236;5.114;2024-02-16T01:27:09;6.07;;;4.63;;
59169;SDS011;52474;52.236;5.114;2024-02-16T01:29:36;7.47;;;4.80;;
59169;SDS011;52474;52.236;5.114;2024-02-16T01:32:02;7.13;;;4.82;;
59169;SDS011;52474;52.236;5.114;2024-02-16T01:34:28;11.40;;;5.28;;
59169;SDS011;52474;52.236;5.114;2024-02-16T01:36:56;9.93;;;4.78;;
59169;SDS011;52474;52.236;5.114;2024-02-16T01:39:21;7.80;;;5.20;;
59169;SDS011;52474;52.236;5.114;2024-02-16T01:41:47;8.32;;;4.72;;
59169;SDS011;52474;52.236;5.114;2024-02-16T01:44:13;6.65;;;5.07;;
59169;SDS011;52474;52.236;5.114;2024-02-16T01:46:42;10.60;;;5.43;;
59169;SDS011;52474;52.236;5.114;2024-02-16T01:49:08;6.53;;;4.78;;
59169;SDS011;52474;52.236;5.114;2024-02-16T01:51:34;9.60;;;4.93;;
59169;SDS011;52474;52.236;5.114;2024-02-16T01:54:00;6.95;;;5.07;;
59169;SDS011;52474;52.236;5.114;2024-02-16T01:56:27;7.03;;;4.40;;
59169;SDS011;52474;52.236;5.114;2024-02-16T01:58:53;7.82;;;4.53;;
59169;SDS011;52474;52.236;5.114;2024-02-16T02:01:19;8.38;;;5.13;;
59169;SDS011;52474;52.236;5.114;2024-02-16T02:03:45;7.35;;;4.70;;
59169;SDS011;52474;52.236;5.114;2024-02-16T02:06:11;7.68;;;4.90;;
59169;SDS011;52474;52.236;5.114;2024-02-16T02:08:36;6.88;;;4.80;;
59169;SDS011;52474;52.236;5.114;2024-02-16T02:11:02;7.60;;;4.40;;
59169;SDS011;52474;52.236;5.114;2024-02-16T02:13:27;9.27;;;4.43;;
59169;SDS011;52474;52.236;5.114;2024-02-16T02:15:53;7.38;;;4.65;;
59169;SDS011;52474;52.236;5.114;2024-02-16T02:18:20;7.47;;;4.57;;
59169;SDS011;52474;52.236;5.114;2024-02-16T02:20:46;9.65;;;4.82;;
59169;SDS011;52474;52.236;5.114;2024-02-16T02:23:11;6.85;;;4.20;;
59169;SDS011;52474;52.236;5.114;2024-02-16T02:25:40;7.97;;;4.75;;
59169;SDS011;52474;52.236;5.114;2024-02-16T02:28:05;9.05;;;5.10;;
59169;SDS011;52474;52.236;5.114;2024-02-16T02:30:31;7.60;;;4.82;;
59169;SDS011;52474;52.236;5.114;2024-02-16T02:32:57;6.55;;;4.38;;
59169;SDS011;52474;52.236;5.114;2024-02-16T02:35:22;6.72;;;4.70;;
59169;SDS011;52474;52.236;5.114;2024-02-16T02:37:48;8.95;;;4.70;;
59169;SDS011;52474;52.236;5.114;2024-02-16T02:40:14;8.50;;;5.13;;
59169;SDS011;52474;52.236;5.114;2024-02-16T02:42:39;7.40;;;4.47;;
59169;SDS011;52474;52.236;5.114;2024-02-16T02:45:05;8.38;;;4.55;;
59169;SDS011;52474;52.236;5.114;2024-02-16T02:47:31;6.32;;;4.53;;
59169;SDS011;52474;52.236;5.114;2024-02-16T02:49:57;10.48;;;4.53;;
59169;SDS011;52474;52.236;5.114;2024-02-16T02:52:23;6.60;;;4.72;;
59169;SDS011;52474;52.236;5.114;2024-02-16T02:54:48;5.65;;;4.55;;
59169;SDS011;52474;52.236;5.114;2024-02-16T02:57:14;7.63;;;5.07;;
59169;SDS011;52474;52.236;5.114;2024-02-16T02:59:40;7.32;;;4.88;;
59169;SDS011;52474;52.236;5.114;2024-02-16T03:02:06;7.32;;;4.93;;
59169;SDS011;52474;52.236;5.114;2024-02-16T03:04:31;8.32;;;4.82;;
59169;SDS011;52474;52.236;5.114;2024-02-16T03:06:57;8.75;;;5.45;;
59169;SDS011;52474;52.236;5.114;2024-02-16T03:09:22;4.65;;;4.13;;
59169;SDS011;52474;52.236;5.114;2024-02-16T03:11:48;5.65;;;4.60;;
59169;SDS011;52474;52.236;5.114;2024-02-16T03:14:18;8.88;;;5.38;;
59169;SDS011;52474;52.236;5.114;2024-02-16T03:16:43;8.88;;;5.13;;
59169;SDS011;52474;52.236;5.114;2024-02-16T03:19:09;8.93;;;5.15;;
59169;SDS011;52474;52.236;5.114;2024-02-16T03:21:35;7.20;;;5.68;;
59169;SDS011;52474;52.236;5.114;2024-02-16T03:24:01;6.75;;;5.35;;
59169;SDS011;52474;52.236;5.114;2024-02-16T03:26:27;6.80;;;5.15;;
59169;SDS011;52474;52.236;5.114;2024-02-16T03:28:53;8.18;;;5.38;;
59169;SDS011;52474;52.236;5.114;2024-02-16T03:31:19;7.82;;;5.25;;
59169;SDS011;52474;52.236;5.114;2024-02-16T03:33:46;6.60;;;4.85;;
59169;SDS011;52474;52.236;5.114;2024-02-16T03:36:13;6.43;;;4.93;;
59169;SDS011;52474;52.236;5.114;2024-02-16T03:38:46;8.82;;;5.68;;
59169;SDS011;52474;52.236;5.114;2024-02-16T03:41:21;6.85;;;4.57;;
59169;SDS011;52474;52.236;5.114;2024-02-16T03:43:49;7.80;;;5.28;;
59169;SDS011;52474;52.236;5.114;2024-02-16T03:46:15;7.20;;;4.97;;
59169;SDS011;52474;52.236;5.114;2024-02-16T03:48:41;7.97;;;4.95;;
59169;SDS011;52474;52.236;5.114;2024-02-16T03:51:07;8.57;;;5.03;;
59169;SDS011;52474;52.236;5.114;2024-02-16T03:53:33;6.03;;;4.90;;
59169;SDS011;52474;52.236;5.114;2024-02-16T03:55:59;8.07;;;5.00;;
59169;SDS011;52474;52.236;5.114;2024-02-16T03:58:25;6.88;;;5.05;;
59169;SDS011;52474;52.236;5.114;2024-02-16T04:00:51;10.32;;;5.25;;
59169;SDS011;52474;52.236;5.114;2024-02-16T04:03:20;10.20;;;5.30;;
59169;SDS011;52474;52.236;5.114;2024-02-16T04:05:46;9.10;;;5.00;;
59169;SDS011;52474;52.236;5.114;2024-02-16T04:08:12;6.38;;;4.80;;
59169;SDS011;52474;52.236;5.114;2024-02-16T04:10:37;8.13;;;5.75;;
59169;SDS011;52474;52.236;5.114;2024-02-16T04:13:03;5.60;;;4.65;;
59169;SDS011;52474;52.236;5.114;2024-02-16T04:15:29;6.65;;;5.00;;
59169;SDS011;52474;52.236;5.114;2024-02-16T04:17:55;8.95;;;5.00;;
59169;SDS011;52474;52.236;5.114;2024-02-16T04:20:21;6.20;;;4.95;;
59169;SDS011;52474;52.236;5.114;2024-02-16T04:22:46;7.68;;;4.65;;
59169;SDS011;52474;52.236;5.114;2024-02-16T04:25:12;7.22;;;4.28;;
59169;SDS011;52474;52.236;5.114;2024-02-16T04:27:38;7.90;;;5.25;;
59169;SDS011;52474;52.236;5.114;2024-02-16T04:30:04;7.45;;;5.05;;
59169;SDS011;52474;52.236;5.114;2024-02-16T04:32:31;9.88;;;4.70;;
59169;SDS011;52474;52.236;5.114;2024-02-16T04:34:58;7.28;;;5.03;;
59169;SDS011;52474;52.236;5.114;2024-02-16T04:37:24;7.40;;;4.90;;
59169;SDS011;52474;52.236;5.114;2024-02-16T04:39:50;6.22;;;4.45;;
59169;SDS011;52474;52.236;5.114;2024-02-16T04:42:16;8.10;;;5.43;;
59169;SDS011;52474;52.236;5.114;2024-02-16T04:44:43;8.80;;;5.45;;
59169;SDS011;52474;52.236;5.114;2024-02-16T04:47:09;10.18;;;5.68;;
59169;SDS011;52474;52.236;5.114;2024-02-16T04:49:34;9.43;;;5.10;;
59169;SDS011;52474;52.236;5.114;2024-02-16T04:52:00;7.63;;;4.60;;
59169;SDS011;52474;52.236;5.114;2024-02-16T04:54:26;7.22;;;5.10;;
59169;SDS011;52474;52.236;5.114;2024-02-16T04:56:52;7.10;;;5.30;;
59169;SDS011;52474;52.236;5.114;2024-02-16T04:59:17;7.85;;;5.18;;
59169;SDS011;52474;52.236;5.114;2024-02-16T05:01:43;8.15;;;4.80;;
59169;SDS011;52474;52.236;5.114;2024-02-16T05:04:14;7.95;;;5.18;;
59169;SDS011;52474;52.236;5.114;2024-02-16T05:06:42;6.05;;;5.40;;
59169;SDS011;52474;52.236;5.114;2024-02-16T05:09:10;9.27;;;5.40;;
59169;SDS011;52474;52.236;5.114;2024-02-16T05:11:36;6.13;;;4.60;;
59169;SDS011;52474;52.236;5.114;2024-02-16T05:14:02;7.97;;;4.90;;
59169;SDS011;52474;52.236;5.114;2024-02-16T05:16:28;8.02;;;4.63;;
59169;SDS011;52474;52.236;5.114;2024-02-16T05:18:55;7.43;;;4.65;;
59169;SDS011;52474;52.236;5.114;2024-02-16T05:21:21;6.68;;;4.90;;
59169;SDS011;52474;52.236;5.114;2024-02-16T05:23:47;9.15;;;4.72;;
59169;SDS011;52474;52.236;5.114;2024-02-16T05:26:13;7.53;;;4.85;;
59169;SDS011;52474;52.236;5.114;2024-02-16T05:28:39;7.57;;;5.13;;
59169;SDS011;52474;52.236;5.114;2024-02-16T05:31:14;6.32;;;4.68;;
59169;SDS011;52474;52.236;5.114;2024-02-16T05:33:43;6.50;;;4.90;;
59169;SDS011;52474;52.236;5.114;2024-02-16T05:36:10;7.90;;;5.22;;
59169;SDS011;52474;52.236;5.114;2024-02-16T05:38:37;8.18;;;4.95;;
59169;SDS011;52474;52.236;5.114;2024-02-16T05:41:09;6.82;;;4.60;;
59169;SDS011;52474;52.236;5.114;2024-02-16T05:46:03;7.97;;;5.03;;
59169;SDS011;52474;52.236;5.114;2024-02-16T05:48:34;9.43;;;5.30;;
59169;SDS011;52474;52.236;5.114;2024-02-16T05:51:03;9.27;;;5.22;;
59169;SDS011;52474;52.236;5.114;2024-02-16T05:53:30;7.60;;;5.05;;
59169;SDS011;52474;52.236;5.114;2024-02-16T05:55:56;8.07;;;5.35;;
59169;SDS011;52474;52.236;5.114;2024-02-16T05:58:24;8.15;;;5.30;;
59169;SDS011;52474;52.236;5.114;2024-02-16T06:00:50;5.82;;;4.75;;
59169;SDS011;52474;52.236;5.114;2024-02-16T06:03:15;8.60;;;5.30;;
59169;SDS011;52474;52.236;5.114;2024-02-16T06:05:41;6.93;;;4.88;;
59169;SDS011;52474;52.236;5.114;2024-02-16T06:08:09;7.93;;;4.75;;
59169;SDS011;52474;52.236;5.114;2024-02-16T06:10:35;8.15;;;4.65;;
59169;SDS011;52474;52.236;5.114;2024-02-16T06:13:01;7.47;;;5.28;;
59169;SDS011;52474;52.236;5.114;2024-02-16T06:15:27;9.25;;;5.05;;
59169;SDS011;52474;52.236;5.114;2024-02-16T06:17:53;6.95;;;5.30;;
59169;SDS011;52474;52.236;5.114;2024-02-16T06:20:19;6.05;;;4.97;;
59169;SDS011;52474;52.236;5.114;2024-02-16T06:22:45;8.52;;;4.28;;
59169;SDS011;52474;52.236;5.114;2024-02-16T06:25:11;6.97;;;4.80;;
59169;SDS011;52474;52.236;5.114;2024-02-16T06:27:36;7.80;;;4.65;;
59169;SDS011;52474;52.236;5.114;2024-02-16T06:30:02;10.13;;;5.45;;
59169;SDS011;52474;52.236;5.114;2024-02-16T06:32:33;8.35;;;5.45;;
59169;SDS011;52474;52.236;5.114;2024-02-16T06:34:59;8.77;;;4.60;;
59169;SDS011;52474;52.236;5.114;2024-02-16T06:37:24;6.28;;;4.53;;
59169;SDS011;52474;52.236;5.114;2024-02-16T06:39:50;7.60;;;4.40;;
59169;SDS011;52474;52.236;5.114;2024-02-16T06:42:16;4.75;;;4.13;;
59169;SDS011;52474;52.236;5.114;2024-02-16T06:44:41;5.88;;;4.60;;
59169;SDS011;52474;52.236;5.114;2024-02-16T06:47:07;9.80;;;4.60;;
59169;SDS011;52474;52.236;5.114;2024-02-16T06:49:33;7.80;;;3.92;;
59169;SDS011;52474;52.236;5.114;2024-02-16T06:51:58;6.82;;;4.32;;
59169;SDS011;52474;52.236;5.114;2024-02-16T06:54:25;6.05;;;4.22;;
59169;SDS011;52474;52.236;5.114;2024-02-16T06:56:51;7.88;;;4.13;;
59169;SDS011;52474;52.236;5.114;2024-02-16T06:59:17;8.65;;;4.82;;
59169;SDS011;52474;52.236;5.114;2024-02-16T07:01:43;8.55;;;4.68;;
59169;SDS011;52474;52.236;5.114;2024-02-16T07:04:09;9.18;;;4.75;;
59169;SDS011;52474;52.236;5.114;2024-02-16T07:06:35;7.85;;;4.75;;
59169;SDS011;52474;52.236;5.114;2024-02-16T07:09:01;9.95;;;4.80;;
59169;SDS011;52474;52.236;5.114;2024-02-16T07:11:27;9.23;;;5.35;;
59169;SDS011;52474;52.236;5.114;2024-02-16T07:13:53;9.68;;;5.38;;
59169;SDS011;52474;52.236;5.114;2024-02-16T07:16:20;8.52;;;4.68;;
59169;SDS011;52474;52.236;5.114;2024-02-16T07:18:45;8.77;;;5.05;;
59169;SDS011;52474;52.236;5.114;2024-02-16T07:21:11;9.45;;;4.55;;
59169;SDS011;52474;52.236;5.114;2024-02-16T07:23:37;6.50;;;4.32;;
59169;SDS011;52474;52.236;5.114;2024-02-16T07:26:03;8.23;;;4.38;;
59169;SDS011;52474;52.236;5.114;2024-02-16T07:28:29;7.05;;;4.53;;
59169;SDS011;52474;52.236;5.114;2024-02-16T07:30:56;9.05;;;4.70;;
59169;SDS011;52474;52.236;5.114;2024-02-16T07:33:21;7.32;;;4.57;;
59169;SDS011;52474;52.236;5.114;2024-02-16T07:35:49;7.55;;;4.93;;
59169;SDS011;52474;52.236;5.114;2024-02-16T07:38:16;12.27;;;5.28;;
59169;SDS011;52474;52.236;5.114;2024-02-16T07:40:42;9.98;;;4.93;;
59169;SDS011;52474;52.236;5.114;2024-02-16T07:43:07;8.88;;;5.18;;
59169;SDS011;52474;52.236;5.114;2024-02-16T07:45:33;6.15;;;4.80;;
59169;SDS011;52474;52.236;5.114;2024-02-16T07:47:59;9.32;;;5.30;;
59169;SDS011;52474;52.236;5.114;2024-02-16T07:50:30;11.27;;;5.10;;
59169;SDS011;52474;52.236;5.114;2024-02-16T07:52:56;8.75;;;5.03;;
59169;SDS011;52474;52.236;5.114;2024-02-16T07:55:21;8.00;;;5.20;;
59169;SDS011;52474;52.236;5.114;2024-02-16T07:57:50;7.40;;;5.25;;
59169;SDS011;52474;52.236;5.114;2024-02-16T08:00:16;8.90;;;5.10;;
59169;SDS011;52474;52.236;5.114;2024-02-16T08:02:42;9.85;;;5.65;;
59169;SDS011;52474;52.236;5.114;2024-02-16T08:05:11;8.68;;;5.57;;
59169;SDS011;52474;52.236;5.114;2024-02-16T08:07:38;8.98;;;5.82;;
59169;SDS011;52474;52.236;5.114;2024-02-16T08:10:04;8.25;;;5.53;;
59169;SDS011;52474;52.236;5.114;2024-02-16T08:12:30;9.30;;;5.57;;
59169;SDS011;52474;52.236;5.114;2024-02-16T08:14:57;8.85;;;5.35;;
59169;SDS011;52474;52.236;5.114;2024-02-16T08:17:24;8.63;;;5.88;;
59169;SDS011;52474;52.236;5.114;2024-02-16T08:19:53;9.32;;;5.00;;
59169;SDS011;52474;52.236;5.114;2024-02-16T08:22:19;7.75;;;5.40;;
59169;SDS011;52474;52.236;5.114;2024-02-16T08:24:45;13.45;;;6.47;;
59169;SDS011;52474;52.236;5.114;2024-02-16T08:27:11;10.73;;;5.90;;
59169;SDS011;52474;52.236;5.114;2024-02-16T08:29:41;11.10;;;6.18;;
59169;SDS011;52474;52.236;5.114;2024-02-16T08:32:10;8.50;;;6.00;;
59169;SDS011;52474;52.236;5.114;2024-02-16T08:34:35;8.73;;;5.97;;
59169;SDS011;52474;52.236;5.114;2024-02-16T08:37:02;9.52;;;6.10;;
59169;SDS011;52474;52.236;5.114;2024-02-16T08:39:30;10.88;;;5.60;;
59169;SDS011;52474;52.236;5.114;2024-02-16T08:41:56;7.40;;;5.75;;
59169;SDS011;52474;52.236;5.114;2024-02-16T08:44:23;10.73;;;5.82;;
59169;SDS011;52474;52.236;5.114;2024-02-16T08:46:50;11.60;;;6.20;;
59169;SDS011;52474;52.236;5.114;2024-02-16T08:49:36;9.60;;;6.15;;
59169;SDS011;52474;52.236;5.114;2024-02-16T08:52:02;9.85;;;6.28;;
59169;SDS011;52474;52.236;5.114;2024-02-16T08:54:28;7.78;;;5.78;;
59169;SDS011;52474;52.236;5.114;2024-02-16T08:56:53;8.98;;;5.78;;
59169;SDS011;52474;52.236;5.114;2024-02-16T08:59:19;9.05;;;6.18;;
59169;SDS011;52474;52.236;5.114;2024-02-16T09:01:46;8.38;;;6.05;;
59169;SDS011;52474;52.236;5.114;2024-02-16T09:04:11;9.70;;;6.53;;
59169;SDS011;52474;52.236;5.114;2024-02-16T09:06:38;11.48;;;6.30;;
59169;SDS011;52474;52.236;5.114;2024-02-16T09:09:04;10.48;;;6.10;;
59169;SDS011;52474;52.236;5.114;2024-02-16T09:11:30;12.50;;;7.05;;
59169;SDS011;52474;52.236;5.114;2024-02-16T09:13:55;7.43;;;5.53;;
59169;SDS011;52474;52.236;5.114;2024-02-16T09:16:21;12.52;;;6.32;;
59169;SDS011;52474;52.236;5.114;2024-02-16T09:18:47;10.13;;;6.80;;
59169;SDS011;52474;52.236;5.114;2024-02-16T09:21:15;9.73;;;6.30;;
59169;SDS011;52474;52.236;5.114;2024-02-16T09:23:41;10.75;;;6.45;;
59169;SDS011;52474;52.236;5.114;2024-02-16T09:26:07;10.07;;;5.97;;
59169;SDS011;52474;52.236;5.114;2024-02-16T09:28:39;9.98;;;6.18;;
59169;SDS011;52474;52.236;5.114;2024-02-16T09:31:06;9.77;;;6.15;;
59169;SDS011;52474;52.236;5.114;2024-02-16T09:33:33;8.68;;;6.30;;
59169;SDS011;52474;52.236;5.114;2024-02-16T09:35:59;11.38;;;6.47;;
59169;SDS011;52474;52.236;5.114;2024-02-16T09:38:24;9.57;;;6.50;;
59169;SDS011;52474;52.236;5.114;2024-02-16T09:40:50;12.52;;;6.90;;
59169;SDS011;52474;52.236;5.114;2024-02-16T09:43:27;10.60;;;6.57;;
59169;SDS011;52474;52.236;5.114;2024-02-16T09:45:57;10.85;;;7.10;;
59169;SDS011;52474;52.236;5.114;2024-02-16T09:48:25;10.45;;;6.50;;
59169;SDS011;52474;52.236;5.114;2024-02-16T09:50:55;11.43;;;7.18;;
59169;SDS011;52474;52.236;5.114;2024-02-16T09:53:27;14.80;;;7.40;;
59169;SDS011;52474;52.236;5.114;2024-02-16T09:55:54;10.20;;;7.13;;
59169;SDS011;52474;52.236;5.114;2024-02-16T09:58:20;12.52;;;7.55;;
59169;SDS011;52474;52.236;5.114;2024-02-16T10:00:49;15.43;;;7.93;;
59169;SDS011;52474;52.236;5.114;2024-02-16T10:03:29;15.10;;;7.88;;
59169;SDS011;52474;52.236;5.114;2024-02-16T10:06:05;10.63;;;7.63;;
59169;SDS011;52474;52.236;5.114;2024-02-16T10:08:34;14.55;;;9.57;;
59169;SDS011;52474;52.236;5.114;2024-02-16T10:11:11;15.50;;;9.52;;
59169;SDS011;52474;52.236;5.114;2024-02-16T10:13:40;16.90;;;9.35;;
59169;SDS011;52474;52.236;5.114;2024-02-16T10:16:09;17.50;;;9.70;;
59169;SDS011;52474;52.236;5.114;2024-02-16T10:18:37;19.55;;;10.00;;
59169;SDS011;52474;52.236;5.114;2024-02-16T10:21:04;21.10;;;10.88;;
59169;SDS011;52474;52.236;5.114;2024-02-16T10:23:30;24.20;;;12.88;;
59169;SDS011;52474;52.236;5.114;2024-02-16T10:25:56;31.38;;;13.77;;
59169;SDS011;52474;52.236;5.114;2024-02-16T10:28:24;30.63;;;14.55;;
59169;SDS011;52474;52.236;5.114;2024-02-16T10:30:56;36.80;;;15.07;;
59169;SDS011;52474;52.236;5.114;2024-02-16T10:33:29;32.63;;;16.20;;
59169;SDS011;52474;52.236;5.114;2024-02-16T10:35:57;40.55;;;16.13;;
59169;SDS011;52474;52.236;5.114;2024-02-16T10:38:23;40.70;;;16.27;;
59169;SDS011;52474;52.236;5.114;2024-02-16T10:40:50;37.10;;;15.20;;
59169;SDS011;52474;52.236;5.114;2024-02-16T10:43:17;47.75;;;16.23;;
59169;SDS011;52474;52.236;5.114;2024-02-16T10:45:43;42.97;;;15.57;;
59169;SDS011;52474;52.236;5.114;2024-02-16T10:48:12;37.83;;;15.77;;
59169;SDS011;52474;52.236;5.114;2024-02-16T10:50:40;40.15;;;15.45;;
59169;SDS011;52474;52.236;5.114;2024-02-16T10:53:12;42.97;;;16.15;;
59169;SDS011;52474;52.236;5.114;2024-02-16T10:55:43;45.00;;;16.48;;
59169;SDS011;52474;52.236;5.114;2024-02-16T10:58:10;43.15;;;15.73;;
59169;SDS011;52474;52.236;5.114;2024-02-16T11:00:53;48.35;;;17.35;;
59169;SDS011;52474;52.236;5.114;2024-02-16T11:03:24;49.35;;;16.23;;
59169;SDS011;52474;52.236;5.114;2024-02-16T11:05:50;33.20;;;10.88;;
59169;SDS011;52474;52.236;5.114;2024-02-16T11:08:20;21.55;;;9.43;;
59169;SDS011;52474;52.236;5.114;2024-02-16T11:11:01;35.67;;;11.38;;
59169;SDS011;52474;52.236;5.114;2024-02-16T11:13:31;35.13;;;11.75;;
59169;SDS011;52474;52.236;5.114;2024-02-16T11:18:27;25.85;;;11.20;;
59169;SDS011;52474;52.236;5.114;2024-02-16T11:20:53;30.60;;;11.35;;
59169;SDS011;52474;52.236;5.114;2024-02-16T11:23:24;33.22;;;11.95;;
59169;SDS011;52474;52.236;5.114;2024-02-16T11:25:53;28.02;;;11.02;;
59169;SDS011;52474;52.236;5.114;2024-02-16T11:28:19;25.85;;;10.70;;
59169;SDS011;52474;52.236;5.114;2024-02-16T11:30:45;25.80;;;10.57;;
59169;SDS011;52474;52.236;5.114;2024-02-16T11:33:11;20.73;;;10.10;;
59169;SDS011;52474;52.236;5.114;2024-02-16T11:35:40;21.08;;;10.00;;
59169;SDS011;52474;52.236;5.114;2024-02-16T11:38:05;26.42;;;10.30;;
59169;SDS011;52474;52.236;5.114;2024-02-16T11:40:32;24.27;;;11.30;;
59169;SDS011;52474;52.236;5.114;2024-02-16T11:42:59;21.08;;;10.63;;
59169;SDS011;52474;52.236;5.114;2024-02-16T11:45:27;19.50;;;9.43;;
59169;SDS011;52474;52.236;5.114;2024-02-16T11:48:04;21.25;;;9.45;;
59169;SDS011;52474;52.236;5.114;2024-02-16T11:50:30;17.58;;;9.32;;
59169;SDS011;52474;52.236;5.114;2024-02-16T11:52:56;17.13;;;8.98;;
59169;SDS011;52474;52.236;5.114;2024-02-16T11:55:22;18.60;;;8.85;;
59169;SDS011;52474;52.236;5.114;2024-02-16T11:57:47;15.93;;;8.55;;
59169;SDS011;52474;52.236;5.114;2024-02-16T12:00:16;19.85;;;9.35;;
59169;SDS011;52474;52.236;5.114;2024-02-16T12:02:42;17.15;;;8.13;;
59169;SDS011;52474;52.236;5.114;2024-02-16T12:05:08;14.02;;;8.60;;
59169;SDS011;52474;52.236;5.114;2024-02-16T12:07:36;17.05;;;8.98;;
59169;SDS011;52474;52.236;5.114;2024-02-16T12:10:05;18.02;;;10.00;;
59169;SDS011;52474;52.236;5.114;2024-02-16T12:12:31;18.10;;;8.95;;
59169;SDS011;52474;52.236;5.114;2024-02-16T12:14:57;18.52;;;9.30;;
59169;SDS011;52474;52.236;5.114;2024-02-16T12:17:24;16.13;;;8.63;;
59169;SDS011;52474;52.236;5.114;2024-02-16T12:19:50;19.27;;;9.18;;
59169;SDS011;52474;52.236;5.114;2024-02-16T12:22:17;17.00;;;8.93;;
59169;SDS011;52474;52.236;5.114;2024-02-16T12:24:47;16.48;;;8.90;;
59169;SDS011;52474;52.236;5.114;2024-02-16T12:27:15;19.63;;;9.43;;
59169;SDS011;52474;52.236;5.114;2024-02-16T12:29:41;15.43;;;8.52;;
59169;SDS011;52474;52.236;5.114;2024-02-16T12:32:07;15.90;;;8.52;;
59169;SDS011;52474;52.236;5.114;2024-02-16T12:34:35;12.55;;;7.82;;
59169;SDS011;52474;52.236;5.114;2024-02-16T12:37:06;16.83;;;8.65;;
59169;SDS011;52474;52.236;5.114;2024-02-16T12:39:33;13.95;;;8.48;;
59169;SDS011;52474;52.236;5.114;2024-02-16T12:42:02;12.43;;;7.15;;
59169;SDS011;52474;52.236;5.114;2024-02-16T12:44:28;13.85;;;7.80;;
59169;SDS011;52474;52.236;5.114;2024-02-16T12:46:54;11.13;;;7.05;;
59169;SDS011;52474;52.236;5.114;2024-02-16T12:49:19;11.13;;;7.05;;
59169;SDS011;52474;52.236;5.114;2024-02-16T12:51:48;11.05;;;7.15;;
59169;SDS011;52474;52.236;5.114;2024-02-16T12:54:17;10.35;;;6.20;;
59169;SDS011;52474;52.236;5.114;2024-02-16T12:56:47;12.15;;;6.57;;
59169;SDS011;52474;52.236;5.114;2024-02-16T12:59:15;10.68;;;6.10;;
59169;SDS011;52474;52.236;5.114;2024-02-16T13:01:40;10.48;;;6.05;;
59169;SDS011;52474;52.236;5.114;2024-02-16T13:04:08;9.88;;;5.47;;
59169;SDS011;52474;52.236;5.114;2024-02-16T13:06:34;12.70;;;6.20;;
59169;SDS011;52474;52.236;5.114;2024-02-16T13:09:02;9.52;;;5.30;;
59169;SDS011;52474;52.236;5.114;2024-02-16T13:11:29;8.85;;;4.55;;
59169;SDS011;52474;52.236;5.114;2024-02-16T13:13:55;7.72;;;4.28;;
59169;SDS011;52474;52.236;5.114;2024-02-16T13:16:21;8.27;;;4.68;;
59169;SDS011;52474;52.236;5.114;2024-02-16T13:18:46;7.38;;;4.68;;
59169;SDS011;52474;52.236;5.114;2024-02-16T13:21:12;8.82;;;4.35;;
59169;SDS011;52474;52.236;5.114;2024-02-16T13:23:38;11.35;;;4.90;;
59169;SDS011;52474;52.236;5.114;2024-02-16T13:26:03;9.75;;;4.78;;
59169;SDS011;52474;52.236;5.114;2024-02-16T13:28:30;8.00;;;4.93;;
59169;SDS011;52474;52.236;5.114;2024-02-16T13:30:55;9.25;;;4.82;;
59169;SDS011;52474;52.236;5.114;2024-02-16T13:33:21;10.40;;;5.45;;
59169;SDS011;52474;52.236;5.114;2024-02-16T13:35:47;9.02;;;5.00;;
59169;SDS011;52474;52.236;5.114;2024-02-16T13:38:13;9.98;;;5.13;;
59169;SDS011;52474;52.236;5.114;2024-02-16T13:40:39;8.65;;;5.63;;
59169;SDS011;52474;52.236;5.114;2024-02-16T13:43:05;10.38;;;5.50;;
59169;SDS011;52474;52.236;5.114;2024-02-16T13:45:47;11.65;;;5.93;;
59169;SDS011;52474;52.236;5.114;2024-02-16T13:48:16;9.70;;;5.68;;
59169;SDS011;52474;52.236;5.114;2024-02-16T13:50:48;10.05;;;5.75;;
59169;SDS011;52474;52.236;5.114;2024-02-16T13:53:14;13.38;;;5.95;;
59169;SDS011;52474;52.236;5.114;2024-02-16T13:55:43;9.65;;;6.28;;
59169;SDS011;52474;52.236;5.114;2024-02-16T13:58:10;13.27;;;6.53;;
59169;SDS011;52474;52.236;5.114;2024-02-16T14:00:36;12.05;;;7.10;;
59169;SDS011;52474;52.236;5.114;2024-02-16T14:03:03;10.80;;;6.75;;
59169;SDS011;52474;52.236;5.114;2024-02-16T14:05:35;11.82;;;7.07;;
59169;SDS011;52474;52.236;5.114;2024-02-16T14:08:02;9.73;;;5.93;;
59169;SDS011;52474;52.236;5.114;2024-02-16T14:10:28;8.80;;;6.00;;
59169;SDS011;52474;52.236;5.114;2024-02-16T14:12:54;9.07;;;5.97;;
59169;SDS011;52474;52.236;5.114;2024-02-16T14:15:20;8.23;;;5.45;;
59169;SDS011;52474;52.236;5.114;2024-02-16T14:17:45;9.63;;;5.88;;
59169;SDS011;52474;52.236;5.114;2024-02-16T14:20:11;11.85;;;6.00;;
59169;SDS011;52474;52.236;5.114;2024-02-16T14:22:39;8.57;;;5.72;;
59169;SDS011;52474;52.236;5.114;2024-02-16T14:25:05;8.13;;;5.68;;
59169;SDS011;52474;52.236;5.114;2024-02-16T14:27:31;10.65;;;6.00;;
59169;SDS011;52474;52.236;5.114;2024-02-16T14:29:56;9.80;;;6.18;;
59169;SDS011;52474;52.236;5.114;2024-02-16T14:32:23;10.70;;;6.35;;
59169;SDS011;52474;52.236;5.114;2024-02-16T14:34:49;11.93;;;7.03;;
59169;SDS011;52474;52.236;5.114;2024-02-16T14:37:15;11.43;;;6.55;;
59169;SDS011;52474;52.236;5.114;2024-02-16T14:39:40;12.98;;;7.60;;
59169;SDS011;52474;52.236;5.114;2024-02-16T14:42:06;13.77;;;8.00;;
59169;SDS011;52474;52.236;5.114;2024-02-16T14:44:32;14.23;;;8.70;;